sensor_id;sensor_type;location;lat;lon;timestamp;pressure;altitude;pressure_sealevel;temperature;humidity
14242;BME280;7205;50.864;12.766;2023-04-09T00:00:43;98477.81;;;3.77;87.39
14242;BME280;7205;50.864;12.766;2023-04-09T00:03:10;98479.69;;;3.75;87.44
14242;BME280;7205;50.864;12.766;2023-04-09T00:05:38;98480.75;;;3.73;86.92
14242;BME280;7205;50.864;12.766;2023-04-09T00:08:05;98475.75;;;3.70;87.47
14242;BME280;7205;50.864;12.766;2023-04-09T00:10:34;98474.09;;;3.69;87.88
14242;BME280;7205;50.864;12.766;2023-04-09T00:13:00;98480.25;;;3.68;87.75
14242;BME280;7205;50.864;12.766;2023-04-09T00:15:27;98480.50;;;3.65;87.39
14242;BME280;7205;50.864;12.766;2023-04-09T00:17:54;98485.00;;;3.63;87.89
14242;BME280;7205;50.864;12.766;2023-04-09T00:20:22;98479.88;;;3.61;87.18
14242;BME280;7205;50.864;12.766;2023-04-09T00:22:48;98484.38;;;3.59;87.35
14242;BME280;7205;50.864;12.766;2023-04-09T00:25:16;98477.56;;;3.57;87.66
14242;BME280;7205;50.864;12.766;2023-04-09T00:27:44;98483.75;;;3.56;87.76
14242;BME280;7205;50.864;12.766;2023-04-09T00:30:11;98480.53;;;3.52;87.21
14242;BME280;7205;50.864;12.766;2023-04-09T00:32:38;98475.44;;;3.51;87.97
14242;BME280;7205;50.864;12.766;2023-04-09T00:35:05;98481.69;;;3.48;87.43
14242;BME280;7205;50.864;12.766;2023-04-09T00:37:32;98476.69;;;3.45;87.58
14242;BME280;7205;50.864;12.766;2023-04-09T00:39:59;98477.66;;;3.44;87.97
14242;BME280;7205;50.864;12.766;2023-04-09T00:42:26;98477.03;;;3.41;87.67
14242;BME280;7205;50.864;12.766;2023-04-09T00:44:58;98483.22;;;3.40;88.19
14242;BME280;7205;50.864;12.766;2023-04-09T00:47:25;98484.25;;;3.37;87.73
14242;BME280;7205;50.864;12.766;2023-04-09T00:49:52;98481.00;;;3.34;87.95
14242;BME280;7205;50.864;12.766;2023-04-09T00:52:19;98480.28;;;3.32;87.74
14242;BME280;7205;50.864;12.766;2023-04-09T00:54:46;98475.41;;;3.27;87.84
14242;BME280;7205;50.864;12.766;2023-04-09T00:57:14;98473.88;;;3.25;87.23
14242;BME280;7205;50.864;12.766;2023-04-09T00:59:41;98473.25;;;3.21;87.72
14242;BME280;7205;50.864;12.766;2023-04-09T01:02:09;98474.06;;;3.22;87.69
14242;BME280;7205;50.864;12.766;2023-04-09T01:04:37;98478.56;;;3.20;87.94
14242;BME280;7205;50.864;12.766;2023-04-09T01:07:12;98477.84;;;3.18;87.41
14242;BME280;7205;50.864;12.766;2023-04-09T01:09:47;98482.09;;;3.19;87.79
14242;BME280;7205;50.864;12.766;2023-04-09T01:12:23;98479.50;;;3.19;88.37
14242;BME280;7205;50.864;12.766;2023-04-09T01:14:56;98479.28;;;3.22;88.29
14242;BME280;7205;50.864;12.766;2023-04-09T01:17:30;98479.28;;;3.22;88.37
14242;BME280;7205;50.864;12.766;2023-04-09T01:20:02;98477.41;;;3.24;88.46
14242;BME280;7205;50.864;12.766;2023-04-09T01:22:36;98479.16;;;3.23;88.35
14242;BME280;7205;50.864;12.766;2023-04-09T01:25:16;98479.16;;;3.23;89.08
14242;BME280;7205;50.864;12.766;2023-04-09T01:30:26;98480.47;;;3.18;88.67
14242;BME280;7205;50.864;12.766;2023-04-09T01:32:56;98481.50;;;3.15;88.57
14242;BME280;7205;50.864;12.766;2023-04-09T01:35:24;98484.31;;;3.12;88.13
14242;BME280;7205;50.864;12.766;2023-04-09T01:37:53;98485.38;;;3.10;88.33
14242;BME280;7205;50.864;12.766;2023-04-09T01:40:23;98480.25;;;3.08;88.11
14242;BME280;7205;50.864;12.766;2023-04-09T01:42:51;98486.41;;;3.07;88.72
14242;BME280;7205;50.864;12.766;2023-04-09T01:45:19;98481.31;;;3.06;88.72
14242;BME280;7205;50.864;12.766;2023-04-09T01:47:48;98484.88;;;3.05;88.85
14242;BME280;7205;50.864;12.766;2023-04-09T01:50:15;98488.41;;;3.04;88.85
14242;BME280;7205;50.864;12.766;2023-04-09T01:52:42;98482.47;;;3.02;88.01
14242;BME280;7205;50.864;12.766;2023-04-09T01:55:09;98487.69;;;3.02;88.30
14242;BME280;7205;50.864;12.766;2023-04-09T01:57:36;98481.66;;;3.01;88.54
14242;BME280;7205;50.864;12.766;2023-04-09T02:00:03;98488.53;;;3.02;89.34
14242;BME280;7205;50.864;12.766;2023-04-09T02:02:45;98479.03;;;3.01;88.86
14242;BME280;7205;50.864;12.766;2023-04-09T02:05:17;98480.69;;;3.02;89.45
14242;BME280;7205;50.864;12.766;2023-04-09T02:07:51;98481.66;;;3.01;89.43
14242;BME280;7205;50.864;12.766;2023-04-09T02:10:21;98480.91;;;2.99;89.28
14242;BME280;7205;50.864;12.766;2023-04-09T02:12:50;98484.38;;;3.00;89.56
14242;BME280;7205;50.864;12.766;2023-04-09T02:15:18;98477.47;;;2.99;88.93
14242;BME280;7205;50.864;12.766;2023-04-09T02:17:45;98481.03;;;2.98;89.51
14242;BME280;7205;50.864;12.766;2023-04-09T02:20:17;98486.25;;;2.98;89.36
14242;BME280;7205;50.864;12.766;2023-04-09T02:22:44;98485.41;;;2.97;89.78
14242;BME280;7205;50.864;12.766;2023-04-09T02:25:11;98489.78;;;2.97;89.59
14242;BME280;7205;50.864;12.766;2023-04-09T02:27:37;98492.50;;;2.95;89.96
14242;BME280;7205;50.864;12.766;2023-04-09T02:30:05;98497.72;;;2.95;90.06
14242;BME280;7205;50.864;12.766;2023-04-09T02:32:32;98494.19;;;2.96;89.95
14242;BME280;7205;50.864;12.766;2023-04-09T02:34:59;98495.84;;;2.97;89.60
14242;BME280;7205;50.864;12.766;2023-04-09T02:37:27;98492.50;;;2.95;89.85
14242;BME280;7205;50.864;12.766;2023-04-09T02:39:54;98489.88;;;2.95;89.87
14242;BME280;7205;50.864;12.766;2023-04-09T02:42:21;98490.84;;;2.94;90.06
14242;BME280;7205;50.864;12.766;2023-04-09T02:44:47;98481.44;;;2.92;89.65
14242;BME280;7205;50.864;12.766;2023-04-09T02:47:14;98488.56;;;2.90;90.14
14242;BME280;7205;50.864;12.766;2023-04-09T02:49:41;98482.59;;;2.88;89.53
14242;BME280;7205;50.864;12.766;2023-04-09T02:52:09;98481.03;;;2.85;89.28
14242;BME280;7205;50.864;12.766;2023-04-09T02:54:37;98487.31;;;2.83;89.25
14242;BME280;7205;50.864;12.766;2023-04-09T02:57:04;98489.19;;;2.81;89.26
14242;BME280;7205;50.864;12.766;2023-04-09T02:59:31;98489.28;;;2.79;89.54
14242;BME280;7205;50.864;12.766;2023-04-09T03:02:00;98490.31;;;2.77;89.54
14242;BME280;7205;50.864;12.766;2023-04-09T03:04:27;98488.56;;;2.77;89.95
14242;BME280;7205;50.864;12.766;2023-04-09T03:06:53;98491.28;;;2.76;89.53
14242;BME280;7205;50.864;12.766;2023-04-09T03:09:20;98495.75;;;2.74;89.97
14242;BME280;7205;50.864;12.766;2023-04-09T03:11:48;98489.81;;;2.72;89.77
14242;BME280;7205;50.864;12.766;2023-04-09T03:14:15;98490.03;;;2.69;89.18
14242;BME280;7205;50.864;12.766;2023-04-09T03:16:43;98497.09;;;2.67;89.58
14242;BME280;7205;50.864;12.766;2023-04-09T03:19:10;98488.66;;;2.63;89.48
14242;BME280;7205;50.864;12.766;2023-04-09T03:21:36;98494.81;;;2.62;89.75
14242;BME280;7205;50.864;12.766;2023-04-09T03:24:04;98501.09;;;2.60;89.62
14242;BME280;7205;50.864;12.766;2023-04-09T03:26:31;98497.75;;;2.58;89.69
14242;BME280;7205;50.864;12.766;2023-04-09T03:29:04;98497.94;;;2.54;89.74
14242;BME280;7205;50.864;12.766;2023-04-09T03:31:32;98510.28;;;2.52;89.45
14242;BME280;7205;50.864;12.766;2023-04-09T03:33:58;98508.56;;;2.51;89.80
14242;BME280;7205;50.864;12.766;2023-04-09T03:36:26;98512.25;;;2.49;89.56
14242;BME280;7205;50.864;12.766;2023-04-09T03:39:00;98517.75;;;2.44;89.13
14242;BME280;7205;50.864;12.766;2023-04-09T03:41:36;98512.00;;;2.39;89.37
14242;BME280;7205;50.864;12.766;2023-04-09T03:44:09;98512.13;;;2.38;89.35
14242;BME280;7205;50.864;12.766;2023-04-09T03:46:53;98511.47;;;2.34;89.04
14242;BME280;7205;50.864;12.766;2023-04-09T03:49:20;98518.69;;;2.31;88.95
14242;BME280;7205;50.864;12.766;2023-04-09T03:51:47;98512.75;;;2.29;89.51
14242;BME280;7205;50.864;12.766;2023-04-09T03:54:14;98513.66;;;2.28;89.41
14242;BME280;7205;50.864;12.766;2023-04-09T03:56:43;98513.66;;;2.28;89.95
14242;BME280;7205;50.864;12.766;2023-04-09T03:59:13;98519.63;;;2.30;89.62
14242;BME280;7205;50.864;12.766;2023-04-09T04:01:43;98522.22;;;2.30;89.91
14242;BME280;7205;50.864;12.766;2023-04-09T04:04:10;98518.78;;;2.29;90.43
14242;BME280;7205;50.864;12.766;2023-04-09T04:06:42;98518.59;;;2.32;90.44
14242;BME280;7205;50.864;12.766;2023-04-09T04:09:23;98508.97;;;2.33;90.85
14242;BME280;7205;50.864;12.766;2023-04-09T04:12:02;98505.88;;;2.40;91.50
14242;BME280;7205;50.864;12.766;2023-04-09T04:14:50;98510.44;;;2.49;91.69
14242;BME280;7205;50.864;12.766;2023-04-09T04:17:24;98508.38;;;2.54;91.39
14242;BME280;7205;50.864;12.766;2023-04-09T04:19:52;98516.63;;;2.61;91.27
14242;BME280;7205;50.864;12.766;2023-04-09T04:22:19;98515.25;;;2.68;91.93
14242;BME280;7205;50.864;12.766;2023-04-09T04:24:50;98523.31;;;2.78;92.04
14242;BME280;7205;50.864;12.766;2023-04-09T04:27:19;98521.63;;;2.89;92.23
14242;BME280;7205;50.864;12.766;2023-04-09T04:29:46;98526.81;;;3.02;93.03
14242;BME280;7205;50.864;12.766;2023-04-09T04:32:26;98531.38;;;3.11;93.24
14242;BME280;7205;50.864;12.766;2023-04-09T04:34:54;98527.19;;;3.21;93.35
14242;BME280;7205;50.864;12.766;2023-04-09T04:37:27;98530.81;;;3.31;92.93
14242;BME280;7205;50.864;12.766;2023-04-09T04:39:59;98533.94;;;3.36;92.91
14242;BME280;7205;50.864;12.766;2023-04-09T04:42:28;98538.59;;;3.43;92.78
14242;BME280;7205;50.864;12.766;2023-04-09T04:44:57;98539.97;;;3.49;92.55
14242;BME280;7205;50.864;12.766;2023-04-09T04:47:51;98538.69;;;3.54;92.43
14242;BME280;7205;50.864;12.766;2023-04-09T04:50:18;98532.00;;;3.63;93.35
14242;BME280;7205;50.864;12.766;2023-04-09T04:52:53;98538.09;;;3.74;93.55
14242;BME280;7205;50.864;12.766;2023-04-09T04:55:23;98537.22;;;3.87;93.76
14242;BME280;7205;50.864;12.766;2023-04-09T04:57:51;98541.63;;;3.97;93.77
14242;BME280;7205;50.864;12.766;2023-04-09T05:00:21;98541.69;;;4.08;93.63
14242;BME280;7205;50.864;12.766;2023-04-09T05:02:48;98549.56;;;4.19;93.47
14242;BME280;7205;50.864;12.766;2023-04-09T05:05:20;98542.84;;;4.28;93.99
14242;BME280;7205;50.864;12.766;2023-04-09T05:07:51;98547.38;;;4.37;93.20
14242;BME280;7205;50.864;12.766;2023-04-09T05:10:19;98546.81;;;4.44;93.67
14242;BME280;7205;50.864;12.766;2023-04-09T05:12:47;98547.91;;;4.53;93.11
14242;BME280;7205;50.864;12.766;2023-04-09T05:15:23;98536.75;;;4.62;93.67
14242;BME280;7205;50.864;12.766;2023-04-09T05:17:50;98538.66;;;4.71;93.42
14242;BME280;7205;50.864;12.766;2023-04-09T05:20:17;98529.28;;;4.79;93.11
14242;BME280;7205;50.864;12.766;2023-04-09T05:22:52;98534.75;;;4.87;92.73
14242;BME280;7205;50.864;12.766;2023-04-09T05:25:26;98535.94;;;4.94;93.38
14242;BME280;7205;50.864;12.766;2023-04-09T05:27:53;98531.19;;;4.99;92.96
14242;BME280;7205;50.864;12.766;2023-04-09T05:30:20;98530.75;;;5.05;93.16
14242;BME280;7205;50.864;12.766;2023-04-09T05:32:47;98529.19;;;5.14;93.24
14242;BME280;7205;50.864;12.766;2023-04-09T05:35:15;98535.59;;;5.21;92.78
14242;BME280;7205;50.864;12.766;2023-04-09T05:37:43;98535.00;;;5.29;92.41
14242;BME280;7205;50.864;12.766;2023-04-09T05:40:12;98541.31;;;5.37;92.84
14242;BME280;7205;50.864;12.766;2023-04-09T05:42:39;98547.50;;;5.47;92.51
14242;BME280;7205;50.864;12.766;2023-04-09T05:45:12;98549.50;;;5.55;92.27
14242;BME280;7205;50.864;12.766;2023-04-09T05:47:46;98542.94;;;5.60;92.46
14242;BME280;7205;50.864;12.766;2023-04-09T05:50:17;98544.25;;;5.66;92.17
14242;BME280;7205;50.864;12.766;2023-04-09T05:52:44;98545.41;;;5.73;91.92
14242;BME280;7205;50.864;12.766;2023-04-09T05:55:14;98543.84;;;5.81;92.29
14242;BME280;7205;50.864;12.766;2023-04-09T05:57:45;98548.38;;;5.90;91.81
14242;BME280;7205;50.864;12.766;2023-04-09T06:00:13;98545.72;;;6.01;91.75
14242;BME280;7205;50.864;12.766;2023-04-09T06:02:43;98550.34;;;6.09;91.97
14242;BME280;7205;50.864;12.766;2023-04-09T06:05:10;98551.25;;;6.19;91.24
14242;BME280;7205;50.864;12.766;2023-04-09T06:07:37;98559.19;;;6.28;91.48
14242;BME280;7205;50.864;12.766;2023-04-09T06:10:05;98564.28;;;6.41;91.26
14242;BME280;7205;50.864;12.766;2023-04-09T06:12:34;98556.22;;;6.54;90.85
14242;BME280;7205;50.864;12.766;2023-04-09T06:15:02;98556.72;;;6.68;91.22
14242;BME280;7205;50.864;12.766;2023-04-09T06:17:29;98554.88;;;6.80;91.01
14242;BME280;7205;50.864;12.766;2023-04-09T06:19:56;98567.78;;;6.92;90.67
14242;BME280;7205;50.864;12.766;2023-04-09T06:22:23;98564.13;;;7.04;90.60
14242;BME280;7205;50.864;12.766;2023-04-09T06:24:50;98565.72;;;7.16;89.70
14242;BME280;7205;50.864;12.766;2023-04-09T06:27:16;98560.38;;;7.27;89.19
14242;BME280;7205;50.864;12.766;2023-04-09T06:29:45;98557.53;;;7.40;88.77
14242;BME280;7205;50.864;12.766;2023-04-09T06:32:11;98564.31;;;7.52;88.41
14242;BME280;7205;50.864;12.766;2023-04-09T06:34:38;98560.78;;;7.62;88.00
14242;BME280;7205;50.864;12.766;2023-04-09T06:37:05;98562.59;;;7.72;87.32
14242;BME280;7205;50.864;12.766;2023-04-09T06:39:32;98569.81;;;7.79;86.53
14242;BME280;7205;50.864;12.766;2023-04-09T06:41:58;98565.94;;;7.83;85.74
14242;BME280;7205;50.864;12.766;2023-04-09T06:44:47;98568.59;;;7.93;85.75
14242;BME280;7205;50.864;12.766;2023-04-09T06:47:13;98569.56;;;8.01;85.81
14242;BME280;7205;50.864;12.766;2023-04-09T06:49:40;98572.34;;;8.09;85.23
14242;BME280;7205;50.864;12.766;2023-04-09T06:52:07;98569.84;;;8.17;85.07
14242;BME280;7205;50.864;12.766;2023-04-09T06:54:34;98566.72;;;8.23;84.55
14242;BME280;7205;50.864;12.766;2023-04-09T06:57:00;98575.03;;;8.28;84.00
14242;BME280;7205;50.864;12.766;2023-04-09T06:59:27;98567.84;;;8.30;83.35
14242;BME280;7205;50.864;12.766;2023-04-09T07:01:55;98574.91;;;8.30;82.84
14242;BME280;7205;50.864;12.766;2023-04-09T07:04:22;98578.50;;;8.29;82.47
14242;BME280;7205;50.864;12.766;2023-04-09T07:06:49;98576.00;;;8.27;81.70
14242;BME280;7205;50.864;12.766;2023-04-09T07:09:16;98579.59;;;8.26;81.86
14242;BME280;7205;50.864;12.766;2023-04-09T07:11:43;98582.09;;;8.28;81.46
14242;BME280;7205;50.864;12.766;2023-04-09T07:14:10;98591.53;;;8.30;81.65
14242;BME280;7205;50.864;12.766;2023-04-09T07:16:36;98579.88;;;8.33;82.03
14242;BME280;7205;50.864;12.766;2023-04-09T07:19:04;98573.09;;;8.40;81.87
14242;BME280;7205;50.864;12.766;2023-04-09T07:21:31;98569.91;;;8.46;81.72
14242;BME280;7205;50.864;12.766;2023-04-09T07:23:58;98570.88;;;8.54;81.70
14242;BME280;7205;50.864;12.766;2023-04-09T07:26:25;98577.81;;;8.65;81.48
14242;BME280;7205;50.864;12.766;2023-04-09T07:28:53;98568.38;;;8.72;81.34
14242;BME280;7205;50.864;12.766;2023-04-09T07:31:20;98564.47;;;8.76;80.27
14242;BME280;7205;50.864;12.766;2023-04-09T07:33:47;98566.84;;;8.79;79.95
14242;BME280;7205;50.864;12.766;2023-04-09T07:36:15;98565.03;;;8.79;79.06
14242;BME280;7205;50.864;12.766;2023-04-09T07:38:42;98557.13;;;8.79;78.70
14242;BME280;7205;50.864;12.766;2023-04-09T07:41:09;98557.53;;;8.84;78.70
14242;BME280;7205;50.864;12.766;2023-04-09T07:43:36;98560.16;;;8.94;78.84
14242;BME280;7205;50.864;12.766;2023-04-09T07:46:03;98566.50;;;9.11;79.27
14242;BME280;7205;50.864;12.766;2023-04-09T07:48:29;98565.72;;;9.28;78.54
14242;BME280;7205;50.864;12.766;2023-04-09T07:50:56;98566.91;;;9.43;77.96
14242;BME280;7205;50.864;12.766;2023-04-09T07:53:24;98558.53;;;9.57;77.54
14242;BME280;7205;50.864;12.766;2023-04-09T07:55:51;98569.41;;;9.71;77.07
14242;BME280;7205;50.864;12.766;2023-04-09T07:58:18;98565.59;;;9.83;76.69
14242;BME280;7205;50.864;12.766;2023-04-09T08:00:45;98566.69;;;9.90;75.36
14242;BME280;7205;50.864;12.766;2023-04-09T08:03:13;98561.09;;;9.93;74.33
14242;BME280;7205;50.864;12.766;2023-04-09T08:05:40;98558.31;;;9.95;73.97
14242;BME280;7205;50.864;12.766;2023-04-09T08:08:07;98573.47;;;9.93;73.06
14242;BME280;7205;50.864;12.766;2023-04-09T08:10:35;98565.31;;;9.86;72.90
14242;BME280;7205;50.864;12.766;2023-04-09T08:13:02;98567.72;;;9.80;72.13
14242;BME280;7205;50.864;12.766;2023-04-09T08:15:28;98563.19;;;9.72;71.51
14242;BME280;7205;50.864;12.766;2023-04-09T08:17:55;98562.09;;;9.65;71.40
14242;BME280;7205;50.864;12.766;2023-04-09T08:20:22;98566.16;;;9.60;71.09
14242;BME280;7205;50.864;12.766;2023-04-09T08:22:49;98567.59;;;9.54;70.94
14242;BME280;7205;50.864;12.766;2023-04-09T08:25:16;98562.56;;;9.51;70.76
14242;BME280;7205;50.864;12.766;2023-04-09T08:27:44;98569.81;;;9.49;71.29
14242;BME280;7205;50.864;12.766;2023-04-09T08:30:11;98567.19;;;9.49;71.17
14242;BME280;7205;50.864;12.766;2023-04-09T08:32:38;98568.16;;;9.48;71.44
14242;BME280;7205;50.864;12.766;2023-04-09T08:35:06;98561.38;;;9.46;71.01
14242;BME280;7205;50.864;12.766;2023-04-09T08:37:33;98564.16;;;9.44;70.53
14242;BME280;7205;50.864;12.766;2023-04-09T08:40:00;98565.25;;;9.42;70.06
14242;BME280;7205;50.864;12.766;2023-04-09T08:42:28;98562.94;;;9.39;70.11
14242;BME280;7205;50.864;12.766;2023-04-09T08:44:56;98559.44;;;9.38;70.05
14242;BME280;7205;50.864;12.766;2023-04-09T08:47:24;98554.03;;;9.40;69.94
14242;BME280;7205;50.864;12.766;2023-04-09T08:49:51;98550.59;;;9.39;70.03
14242;BME280;7205;50.864;12.766;2023-04-09T08:52:18;98558.34;;;9.41;70.02
14242;BME280;7205;50.864;12.766;2023-04-09T08:54:55;98552.22;;;9.40;69.73
14242;BME280;7205;50.864;12.766;2023-04-09T08:57:22;98551.09;;;9.43;69.62
14242;BME280;7205;50.864;12.766;2023-04-09T08:59:48;98553.72;;;9.43;69.50
14242;BME280;7205;50.864;12.766;2023-04-09T09:02:17;98553.63;;;9.44;69.30
14242;BME280;7205;50.864;12.766;2023-04-09T09:04:45;98550.00;;;9.45;68.47
14242;BME280;7205;50.864;12.766;2023-04-09T09:07:12;98550.00;;;9.45;68.41
14242;BME280;7205;50.864;12.766;2023-04-09T09:09:53;98545.81;;;9.43;68.27
14242;BME280;7205;50.864;12.766;2023-04-09T09:12:33;98553.72;;;9.43;68.09
14242;BME280;7205;50.864;12.766;2023-04-09T09:15:00;98544.56;;;9.47;68.71
14242;BME280;7205;50.864;12.766;2023-04-09T09:17:29;98545.25;;;9.49;68.41
14242;BME280;7205;50.864;12.766;2023-04-09T09:19:56;98544.81;;;9.53;68.92
14242;BME280;7205;50.864;12.766;2023-04-09T09:22:23;98547.84;;;9.58;68.92
14242;BME280;7205;50.864;12.766;2023-04-09T09:24:51;98546.44;;;9.64;69.02
14242;BME280;7205;50.864;12.766;2023-04-09T09:27:32;98552.78;;;9.71;68.53
14242;BME280;7205;50.864;12.766;2023-04-09T09:30:01;98548.72;;;9.76;68.96
14242;BME280;7205;50.864;12.766;2023-04-09T09:32:30;98538.41;;;9.83;69.33
14242;BME280;7205;50.864;12.766;2023-04-09T09:35:01;98551.97;;;9.88;68.80
14242;BME280;7205;50.864;12.766;2023-04-09T09:37:29;98546.97;;;9.94;69.09
14242;BME280;7205;50.864;12.766;2023-04-09T09:39:56;98545.50;;;10.00;68.79
14242;BME280;7205;50.864;12.766;2023-04-09T09:42:23;98547.41;;;10.07;68.53
14242;BME280;7205;50.864;12.766;2023-04-09T09:44:52;98547.53;;;10.16;69.00
14242;BME280;7205;50.864;12.766;2023-04-09T09:47:19;98548.91;;;10.20;68.36
14242;BME280;7205;50.864;12.766;2023-04-09T09:49:48;98545.09;;;10.22;68.48
14242;BME280;7205;50.864;12.766;2023-04-09T09:52:19;98550.22;;;10.24;67.81
14242;BME280;7205;50.864;12.766;2023-04-09T09:54:50;98544.00;;;10.25;66.91
14242;BME280;7205;50.864;12.766;2023-04-09T09:57:19;98542.69;;;10.29;66.34
14242;BME280;7205;50.864;12.766;2023-04-09T09:59:51;98544.91;;;10.33;65.70
14242;BME280;7205;50.864;12.766;2023-04-09T10:02:20;98538.47;;;10.36;65.73
14242;BME280;7205;50.864;12.766;2023-04-09T10:04:49;98528.28;;;10.41;65.41
14242;BME280;7205;50.864;12.766;2023-04-09T10:07:18;98529.66;;;10.45;65.25
14242;BME280;7205;50.864;12.766;2023-04-09T10:09:48;98529.03;;;10.51;66.14
14242;BME280;7205;50.864;12.766;2023-04-09T10:12:16;98531.66;;;10.51;66.68
14242;BME280;7205;50.864;12.766;2023-04-09T10:14:44;98524.59;;;10.51;66.34
14242;BME280;7205;50.864;12.766;2023-04-09T10:17:11;98525.13;;;10.55;67.14
14242;BME280;7205;50.864;12.766;2023-04-09T10:19:43;98528.41;;;10.57;66.33
14242;BME280;7205;50.864;12.766;2023-04-09T10:22:17;98531.03;;;10.57;66.11
14242;BME280;7205;50.864;12.766;2023-04-09T10:24:47;98525.63;;;10.58;66.44
14242;BME280;7205;50.864;12.766;2023-04-09T10:27:15;98520.84;;;10.62;67.21
14242;BME280;7205;50.864;12.766;2023-04-09T10:29:44;98536.94;;;10.68;67.05
14242;BME280;7205;50.864;12.766;2023-04-09T10:32:11;98526.06;;;10.71;66.67
14242;BME280;7205;50.864;12.766;2023-04-09T10:34:39;98522.94;;;10.76;66.01
14242;BME280;7205;50.864;12.766;2023-04-09T10:37:08;98521.84;;;10.78;65.58
14242;BME280;7205;50.864;12.766;2023-04-09T10:39:39;98519.69;;;10.82;65.47
14242;BME280;7205;50.864;12.766;2023-04-09T10:42:12;98525.47;;;10.85;65.78
14242;BME280;7205;50.864;12.766;2023-04-09T10:44:39;98517.13;;;10.90;66.35
14242;BME280;7205;50.864;12.766;2023-04-09T10:47:07;98520.94;;;10.95;65.96
14242;BME280;7205;50.864;12.766;2023-04-09T10:49:38;98516.47;;;10.96;65.22
14242;BME280;7205;50.864;12.766;2023-04-09T10:52:06;98512.34;;;10.93;64.79
14242;BME280;7205;50.864;12.766;2023-04-09T10:54:45;98517.91;;;10.90;64.70
14242;BME280;7205;50.864;12.766;2023-04-09T10:57:17;98511.84;;;10.90;64.93
14242;BME280;7205;50.864;12.766;2023-04-09T10:59:45;98512.63;;;10.90;64.54
14242;BME280;7205;50.864;12.766;2023-04-09T11:05:30;98505.91;;;10.96;65.02
14242;BME280;7205;50.864;12.766;2023-04-09T11:08:03;98501.31;;;10.98;64.16
14242;BME280;7205;50.864;12.766;2023-04-09T11:10:32;98501.97;;;11.00;64.28
14242;BME280;7205;50.864;12.766;2023-04-09T11:12:59;98492.91;;;11.02;64.08
14242;BME280;7205;50.864;12.766;2023-04-09T11:15:27;98499.53;;;11.06;63.63
14242;BME280;7205;50.864;12.766;2023-04-09T11:17:53;98496.41;;;11.11;63.51
14242;BME280;7205;50.864;12.766;2023-04-09T11:20:23;98491.66;;;11.14;62.91
14242;BME280;7205;50.864;12.766;2023-04-09T11:22:51;98484.22;;;11.18;62.98
14242;BME280;7205;50.864;12.766;2023-04-09T11:25:19;98485.56;;;11.22;62.49
14242;BME280;7205;50.864;12.766;2023-04-09T11:27:48;98484.41;;;11.24;62.52
14242;BME280;7205;50.864;12.766;2023-04-09T11:30:15;98490.06;;;11.29;62.07
14242;BME280;7205;50.864;12.766;2023-04-09T11:32:42;98495.72;;;11.34;61.67
14242;BME280;7205;50.864;12.766;2023-04-09T11:35:10;98491.59;;;11.40;61.30
14242;BME280;7205;50.864;12.766;2023-04-09T11:37:39;98492.13;;;11.44;60.64
14242;BME280;7205;50.864;12.766;2023-04-09T11:40:12;98483.88;;;11.47;60.00
14242;BME280;7205;50.864;12.766;2023-04-09T11:42:41;98479.72;;;11.52;59.16
14242;BME280;7205;50.864;12.766;2023-04-09T11:45:10;98481.06;;;11.56;59.06
14242;BME280;7205;50.864;12.766;2023-04-09T11:47:38;98480.31;;;11.64;59.28
14242;BME280;7205;50.864;12.766;2023-04-09T11:50:07;98490.75;;;11.73;58.57
14242;BME280;7205;50.864;12.766;2023-04-09T11:52:35;98489.63;;;11.84;58.30
14242;BME280;7205;50.864;12.766;2023-04-09T11:55:02;98484.19;;;11.93;57.84
14242;BME280;7205;50.864;12.766;2023-04-09T11:57:39;98480.53;;;12.02;57.19
14242;BME280;7205;50.864;12.766;2023-04-09T12:00:10;98488.53;;;12.10;57.09
14242;BME280;7205;50.864;12.766;2023-04-09T12:02:39;98473.13;;;12.14;56.48
14242;BME280;7205;50.864;12.766;2023-04-09T12:05:09;98472.13;;;12.15;56.02
14242;BME280;7205;50.864;12.766;2023-04-09T12:07:37;98483.56;;;12.15;56.01
14242;BME280;7205;50.864;12.766;2023-04-09T12:10:05;98489.50;;;12.17;56.03
14242;BME280;7205;50.864;12.766;2023-04-09T12:12:41;98478.75;;;12.19;55.91
14242;BME280;7205;50.864;12.766;2023-04-09T12:15:18;98481.88;;;12.22;55.72
14242;BME280;7205;50.864;12.766;2023-04-09T12:17:47;98474.59;;;12.24;55.87
14242;BME280;7205;50.864;12.766;2023-04-09T12:20:28;98488.00;;;12.31;55.91
14242;BME280;7205;50.864;12.766;2023-04-09T12:22:56;98487.53;;;12.35;54.58
14242;BME280;7205;50.864;12.766;2023-04-09T12:25:24;98483.88;;;12.36;54.66
14242;BME280;7205;50.864;12.766;2023-04-09T12:27:51;98486.03;;;12.41;54.66
14242;BME280;7205;50.864;12.766;2023-04-09T12:30:19;98484.53;;;12.46;54.31
14242;BME280;7205;50.864;12.766;2023-04-09T12:32:46;98482.22;;;12.51;54.11
14242;BME280;7205;50.864;12.766;2023-04-09T12:35:13;98486.53;;;12.60;54.19
14242;BME280;7205;50.864;12.766;2023-04-09T12:37:41;98487.19;;;12.71;53.70
14242;BME280;7205;50.864;12.766;2023-04-09T12:40:08;98485.81;;;12.83;53.33
14242;BME280;7205;50.864;12.766;2023-04-09T12:42:35;98479.19;;;12.95;52.81
14242;BME280;7205;50.864;12.766;2023-04-09T12:45:02;98482.34;;;13.06;52.58
14242;BME280;7205;50.864;12.766;2023-04-09T12:47:30;98480.31;;;13.16;51.96
14242;BME280;7205;50.864;12.766;2023-04-09T12:49:57;98483.13;;;13.23;51.77
14242;BME280;7205;50.864;12.766;2023-04-09T12:52:23;98474.84;;;13.26;51.40
14242;BME280;7205;50.864;12.766;2023-04-09T12:54:51;98471.16;;;13.27;51.57
14242;BME280;7205;50.864;12.766;2023-04-09T12:57:17;98466.53;;;13.29;51.73
14242;BME280;7205;50.864;12.766;2023-04-09T12:59:44;98474.47;;;13.29;51.56
14242;BME280;7205;50.864;12.766;2023-04-09T13:02:11;98465.88;;;13.27;50.64
14242;BME280;7205;50.864;12.766;2023-04-09T13:04:39;98461.25;;;13.21;50.20
14242;BME280;7205;50.864;12.766;2023-04-09T13:07:07;98461.59;;;13.18;50.32
14242;BME280;7205;50.864;12.766;2023-04-09T13:09:34;98465.91;;;13.19;50.20
14242;BME280;7205;50.864;12.766;2023-04-09T13:12:01;98459.75;;;13.18;49.95
14242;BME280;7205;50.864;12.766;2023-04-09T13:14:28;98455.13;;;13.20;50.30
14242;BME280;7205;50.864;12.766;2023-04-09T13:16:55;98451.63;;;13.28;50.49
14242;BME280;7205;50.864;12.766;2023-04-09T13:19:21;98463.34;;;13.33;50.11
14242;BME280;7205;50.864;12.766;2023-04-09T13:21:50;98460.66;;;13.41;49.80